Terminal Aerodrome Forecast
Issued by NWS

Home | Current Version | Previous Version | Graphics & Text | Print | Product List | Glossary On
Versions: 1 2 3 4 5 6 7 8 9 10 11 12 13 14 15 16 17 18 19 20
000
FTUS43 KMPX 142043 AAA
TAFAXN
TAF AMD
KAXN 142043Z 1421/1518 16008KT 3SM BR OVC006
     FM142300 17007KT 3/4SM -DZ BR OVC003
     FM150200 25006KT 1SM BR OVC003
     FM150600 32011KT P6SM SCT012 BKN070
     FM150800 30012G20KT P6SM OVC012
     FM151400 31017G26KT P6SM BKN015=

USA.gov is the U.S. government's official web portal to all federal, state and local government web resources and services.